Time;durP1;ratioP1;P1;durP2;ratioP2;P2;SDS_P1;SDS_P2;PMS_P1;PMS_P2;Temp;Humidity;BMP_temperature;BMP_pressure;BME280_temperature;BME280_humidity;BME280_pressure;Samples;Min_cycle;Max_cycle;Signal;HPM_P1;HPM_P2
2021/10/15 00:01:08;;;;;;;11.33;7.40;;;13.70;53.00;;;;;;5058577;28;20481;-92
2021/10/15 00:03:35;;;;;;;14.67;8.47;;;14.10;52.00;;;;;;5060682;28;20472;-91
2021/10/15 00:06:03;;;;;;;12.23;8.87;;;14.30;50.10;;;;;;5060362;28;20433;-92
2021/10/15 00:08:30;;;;;;;11.13;7.80;;;14.00;49.70;;;;;;5047205;28;20468;-92
2021/10/15 00:10:57;;;;;;;12.30;7.50;;;14.20;50.00;;;;;;5059381;28;20480;-90
2021/10/15 00:13:23;;;;;;;10.83;7.50;;;14.30;50.70;;;;;;5060361;28;20497;-92
2021/10/15 00:15:50;;;;;;;15.10;7.67;;;14.30;50.10;;;;;;5059940;28;20464;-92
2021/10/15 00:18:19;;;;;;;11.83;7.37;;;14.20;51.20;;;;;;5058979;28;20445;-92
2021/10/15 00:20:46;;;;;;;11.53;7.57;;;14.10;50.30;;;;;;5039754;28;20476;-92
2021/10/15 00:23:14;;;;;;;9.80;7.03;;;14.10;51.10;;;;;;5038715;28;20476;-92
2021/10/15 00:25:41;;;;;;;10.80;6.93;;;14.40;50.90;;;;;;5038402;28;20479;-92
2021/10/15 00:28:08;;;;;;;9.77;6.50;;;14.50;50.40;;;;;;5038288;28;20935;-93
2021/10/15 00:30:35;;;;;;;10.67;7.17;;;14.40;49.80;;;;;;5038072;28;20445;-93
2021/10/15 00:33:02;;;;;;;10.90;7.00;;;14.20;48.90;;;;;;5037892;28;20568;-93
2021/10/15 00:35:30;;;;;;;10.37;6.37;;;13.90;47.10;;;;;;5037883;28;20495;-92
2021/10/15 00:37:57;;;;;;;9.93;6.37;;;14.10;51.60;;;;;;5038941;28;20819;-92
2021/10/15 00:40:25;;;;;;;10.50;7.00;;;14.30;50.70;;;;;;5053073;28;20448;-92
2021/10/15 00:42:52;;;;;;;11.67;6.70;;;14.50;50.60;;;;;;5053469;28;20587;-92
2021/10/15 00:45:19;;;;;;;13.27;7.00;;;14.70;50.70;;;;;;5046413;28;20732;-92
2021/10/15 00:47:46;;;;;;;12.13;7.33;;;15.10;50.70;;;;;;5037852;28;20843;-92
2021/10/15 00:50:13;;;;;;;10.00;6.00;;;15.40;50.30;;;;;;5038732;28;20453;-93
2021/10/15 00:52:42;;;;;;;12.33;6.73;;;15.30;49.90;;;;;;5037694;28;20509;-92
2021/10/15 00:55:09;;;;;;;10.13;6.97;;;15.20;47.30;;;;;;5037471;28;20487;-93
2021/10/15 00:57:36;;;;;;;8.40;6.37;;;14.90;48.50;;;;;;5037547;28;20477;-93
2021/10/15 01:00:04;;;;;;;14.57;7.83;;;14.70;49.00;;;;;;5037379;28;20969;-92
2021/10/15 01:02:31;;;;;;;10.47;7.10;;;14.40;49.10;;;;;;5037072;28;20473;-93
2021/10/15 01:04:58;;;;;;;9.50;6.63;;;14.00;48.20;;;;;;5036879;28;20788;-92
2021/10/15 01:07:28;;;;;;;13.60;7.00;;;13.90;49.50;;;;;;5039382;28;20846;-92
2021/10/15 01:09:58;;;;;;;9.43;6.43;;;13.70;47.80;;;;;;5039422;28;20453;-92
2021/10/15 01:12:25;;;;;;;9.33;6.80;;;13.50;49.90;;;;;;5038264;28;20475;-92
2021/10/15 01:14:52;;;;;;;9.67;6.13;;;13.70;51.90;;;;;;5038026;28;20488;-93
2021/10/15 01:17:19;;;;;;;10.03;6.90;;;13.70;50.20;;;;;;5037891;28;20456;-92
2021/10/15 01:19:46;;;;;;;9.87;6.50;;;13.90;52.00;;;;;;5039492;28;20481;-93
2021/10/15 01:22:15;;;;;;;15.93;8.20;;;13.80;51.40;;;;;;5040433;28;20511;-92
2021/10/15 01:24:42;;;;;;;9.53;6.90;;;13.60;50.60;;;;;;5040012;28;20556;-91
2021/10/15 01:27:10;;;;;;;8.83;6.60;;;13.30;51.30;;;;;;5039927;28;20437;-93
2021/10/15 01:29:39;;;;;;;10.10;6.87;;;12.80;48.90;;;;;;5039257;28;20430;-91
2021/10/15 01:32:08;;;;;;;12.40;7.20;;;12.60;50.30;;;;;;5038034;28;20950;-92
2021/10/15 01:34:35;;;;;;;17.00;7.50;;;12.70;52.00;;;;;;5057587;28;20467;-90
2021/10/15 01:37:02;;;;;;;10.17;7.10;;;12.40;53.10;;;;;;5049193;28;20511;-91
2021/10/15 01:39:31;;;;;;;8.80;6.57;;;12.00;52.10;;;;;;5040107;28;20632;-91
2021/10/15 01:41:58;;;;;;;11.23;7.40;;;11.90;52.10;;;;;;5043100;28;20475;-91
2021/10/15 01:44:25;;;;;;;8.77;6.53;;;11.70;52.60;;;;;;5040946;28;20496;-92
2021/10/15 01:46:52;;;;;;;11.13;7.13;;;11.50;53.50;;;;;;5040298;28;20479;-93
2021/10/15 01:49:19;;;;;;;8.13;6.30;;;11.50;52.40;;;;;;5040982;28;20540;-92
2021/10/15 01:51:46;;;;;;;11.33;6.80;;;11.50;55.00;;;;;;5038909;28;20496;-92
2021/10/15 01:54:14;;;;;;;9.47;6.33;;;11.90;55.00;;;;;;5044710;28;20479;-92
2021/10/15 01:56:42;;;;;;;12.43;7.27;;;12.20;53.80;;;;;;5041968;28;20553;-91
2021/10/15 01:59:10;;;;;;;9.50;6.87;;;12.20;53.30;;;;;;5044314;28;20433;-93
2021/10/15 02:01:37;;;;;;;11.50;7.40;;;12.30;52.80;;;;;;5041803;28;20479;-93
2021/10/15 02:04:04;;;;;;;12.30;6.57;;;12.60;54.00;;;;;;5039902;28;20772;-92
2021/10/15 02:06:31;;;;;;;21.90;6.40;;;12.40;53.00;;;;;;5036479;28;20519;-92
2021/10/15 02:08:58;;;;;;;8.10;6.00;;;12.40;52.50;;;;;;5036310;28;20460;-92
2021/10/15 02:11:25;;;;;;;8.87;6.23;;;12.50;53.10;;;;;;5042053;28;20441;-90
2021/10/15 02:13:53;;;;;;;9.50;6.60;;;12.90;53.00;;;;;;5057977;28;20479;-89
2021/10/15 02:16:20;;;;;;;10.50;6.93;;;12.60;50.10;;;;;;5036705;28;20476;-92
2021/10/15 02:18:47;;;;;;;10.17;6.33;;;12.70;51.10;;;;;;5036073;28;20464;-91
2021/10/15 02:21:14;;;;;;;11.17;7.30;;;12.70;49.90;;;;;;5036417;28;20941;-92
2021/10/15 02:23:43;;;;;;;9.53;6.37;;;12.60;51.90;;;;;;5035113;28;20457;-92
2021/10/15 02:26:10;;;;;;;8.30;6.50;;;13.20;53.60;;;;;;5035876;28;20528;-92
2021/10/15 02:28:37;;;;;;;9.20;5.93;;;13.50;52.80;;;;;;5035732;28;20461;-92
2021/10/15 02:31:06;;;;;;;10.10;5.70;;;13.90;53.10;;;;;;5034937;28;20544;-92
2021/10/15 02:33:33;;;;;;;9.43;6.00;;;14.10;52.40;;;;;;5035049;28;20501;-92
2021/10/15 02:36:00;;;;;;;7.87;5.90;;;14.50;52.30;;;;;;5034650;28;20437;-92
2021/10/15 02:38:27;;;;;;;10.07;7.13;;;14.70;51.00;;;;;;5034857;28;20465;-92
2021/10/15 02:40:54;;;;;;;8.57;5.87;;;14.50;47.50;;;;;;5035091;28;20487;-92
2021/10/15 02:43:21;;;;;;;7.67;6.00;;;14.20;48.90;;;;;;5034941;28;20488;-92
2021/10/15 02:45:48;;;;;;;9.60;6.73;;;14.00;49.00;;;;;;5035230;28;20517;-92
2021/10/15 02:48:16;;;;;;;11.40;6.60;;;14.40;50.50;;;;;;5036834;28;20452;-92
2021/10/15 02:50:43;;;;;;;8.27;5.53;;;14.60;49.90;;;;;;5034608;28;20536;-92
2021/10/15 02:53:10;;;;;;;9.27;6.20;;;14.60;50.60;;;;;;5035172;28;21003;-92
2021/10/15 02:55:37;;;;;;;7.27;6.30;;;14.90;50.60;;;;;;5034934;28;20495;-92
2021/10/15 02:58:04;;;;;;;10.30;6.60;;;15.20;48.70;;;;;;5034539;28;20834;-92
2021/10/15 03:00:31;;;;;;;8.90;5.57;;;15.10;49.20;;;;;;5034033;28;20440;-92
2021/10/15 03:02:58;;;;;;;10.30;6.10;;;15.10;49.50;;;;;;5034254;28;20579;-92
2021/10/15 03:05:27;;;;;;;9.47;5.90;;;15.20;49.80;;;;;;5033720;28;20448;-92
2021/10/15 03:07:54;;;;;;;6.77;5.60;;;15.10;49.00;;;;;;5034914;28;20473;-91
2021/10/15 03:10:21;;;;;;;7.10;5.43;;;14.90;49.20;;;;;;5034812;28;20863;-92
2021/10/15 03:12:48;;;;;;;9.87;6.60;;;14.70;48.70;;;;;;5033754;28;20575;-92
2021/10/15 03:15:15;;;;;;;7.97;5.57;;;14.60;47.80;;;;;;5034343;28;20499;-92
2021/10/15 03:17:42;;;;;;;7.50;5.70;;;14.50;49.10;;;;;;5035065;28;20541;-92
2021/10/15 03:20:10;;;;;;;10.70;6.13;;;14.70;48.40;;;;;;5034346;28;20437;-92
2021/10/15 03:22:38;;;;;;;7.13;5.63;;;14.60;48.40;;;;;;5034372;28;20655;-92
2021/10/15 03:25:06;;;;;;;9.47;5.43;;;14.50;47.60;;;;;;5034236;28;20449;-92
2021/10/15 03:27:33;;;;;;;11.30;5.33;;;14.40;48.90;;;;;;5034783;28;20453;-92
2021/10/15 03:30:00;;;;;;;8.93;5.10;;;14.50;48.70;;;;;;5033706;28;20615;-92
2021/10/15 03:32:27;;;;;;;9.43;5.20;;;14.40;49.40;;;;;;5033850;28;20993;-91
2021/10/15 03:34:53;;;;;;;7.50;5.87;;;14.50;50.00;;;;;;5033770;28;20503;-91
2021/10/15 03:37:20;;;;;;;7.00;5.10;;;14.60;49.50;;;;;;5033492;28;20452;-92
2021/10/15 03:39:49;;;;;;;10.10;6.03;;;14.60;49.20;;;;;;5033762;28;20511;-91
2021/10/15 03:42:16;;;;;;;7.53;5.57;;;14.50;48.50;;;;;;5033556;28;20526;-91
2021/10/15 03:44:43;;;;;;;8.20;5.37;;;14.40;49.40;;;;;;5034644;28;20542;-92
2021/10/15 03:47:10;;;;;;;9.27;6.57;;;14.50;47.70;;;;;;5036836;28;20556;-92
2021/10/15 03:49:37;;;;;;;8.80;5.47;;;14.20;47.90;;;;;;5036150;28;20442;-93
2021/10/15 03:52:05;;;;;;;9.23;5.67;;;14.10;49.80;;;;;;5033861;28;20919;-92
2021/10/15 03:54:32;;;;;;;13.57;6.43;;;14.10;50.20;;;;;;5034543;28;20536;-92
2021/10/15 03:57:01;;;;;;;11.90;6.83;;;14.20;48.60;;;;;;5034003;28;20461;-92
2021/10/15 03:59:27;;;;;;;11.80;6.53;;;13.70;45.30;;;;;;5033435;28;20578;-92
2021/10/15 04:01:54;;;;;;;9.00;6.23;;;13.50;47.80;;;;;;5033658;28;20562;-92
2021/10/15 04:04:21;;;;;;;8.03;5.63;;;12.90;49.10;;;;;;5033183;28;20865;-92
2021/10/15 04:06:48;;;;;;;6.90;5.50;;;12.80;52.10;;;;;;5034092;28;21036;-92
2021/10/15 04:09:16;;;;;;;8.87;6.40;;;12.90;50.70;;;;;;5034205;28;20510;-92
2021/10/15 04:11:43;;;;;;;9.60;5.70;;;12.80;48.20;;;;;;5034080;28;20460;-92
2021/10/15 04:14:11;;;;;;;9.47;6.63;;;12.80;49.60;;;;;;5033379;28;20456;-92
2021/10/15 04:16:38;;;;;;;10.73;6.67;;;12.80;51.30;;;;;;5034056;28;20452;-92
2021/10/15 04:19:05;;;;;;;8.03;5.67;;;12.90;50.70;;;;;;5033899;28;20905;-92
2021/10/15 04:21:32;;;;;;;10.90;5.80;;;13.20;51.00;;;;;;5033722;28;20473;-92
2021/10/15 04:24:00;;;;;;;9.00;6.57;;;13.20;48.50;;;;;;5033137;28;20508;-92
2021/10/15 04:26:28;;;;;;;8.53;5.93;;;13.00;50.60;;;;;;5034200;28;20468;-92
2021/10/15 04:28:55;;;;;;;10.83;5.33;;;12.80;47.40;;;;;;5034711;28;20472;-92
2021/10/15 04:31:23;;;;;;;12.83;6.00;;;12.40;50.70;;;;;;5033464;28;20436;-92
2021/10/15 04:33:50;;;;;;;9.67;6.73;;;12.20;51.60;;;;;;5035005;28;20463;-92
2021/10/15 04:36:17;;;;;;;7.87;5.67;;;11.90;48.30;;;;;;5035542;28;20450;-92
2021/10/15 04:38:45;;;;;;;11.30;6.27;;;11.60;49.60;;;;;;5038813;28;20972;-92
2021/10/15 04:41:12;;;;;;;8.70;5.93;;;11.90;51.40;;;;;;5040499;28;20466;-92
2021/10/15 04:43:39;;;;;;;7.67;5.70;;;12.30;51.80;;;;;;5040699;28;20491;-92
2021/10/15 04:46:06;;;;;;;8.90;6.30;;;12.50;51.20;;;;;;5040547;28;20433;-92
2021/10/15 04:48:35;;;;;;;9.83;6.00;;;12.60;49.90;;;;;;5040128;28;20500;-92
2021/10/15 04:51:02;;;;;;;10.57;6.17;;;12.60;51.10;;;;;;5039523;28;20411;-92
2021/10/15 04:53:29;;;;;;;7.43;5.60;;;12.80;52.10;;;;;;5042360;28;20460;-92
2021/10/15 04:55:56;;;;;;;6.97;5.40;;;13.20;51.60;;;;;;5053722;28;20516;-92
2021/10/15 04:58:23;;;;;;;8.53;5.43;;;13.40;50.60;;;;;;5057396;28;20556;-91
2021/10/15 05:00:51;;;;;;;8.10;5.90;;;13.30;51.30;;;;;;5058313;28;20441;-91
2021/10/15 05:03:18;;;;;;;5.93;4.83;;;13.40;52.70;;;;;;5058776;28;20475;-92
2021/10/15 05:05:46;;;;;;;8.57;5.50;;;13.60;52.20;;;;;;5057783;28;20441;-92
2021/10/15 05:08:15;;;;;;;8.30;5.10;;;14.00;51.70;;;;;;5059174;28;20437;-91
2021/10/15 05:10:44;;;;;;;6.90;5.10;;;14.30;50.70;;;;;;5058415;28;20524;-92
2021/10/15 05:13:13;;;;;;;7.13;5.20;;;14.10;45.40;;;;;;5056331;28;20472;-92
2021/10/15 05:15:43;;;;;;;11.13;6.60;;;13.40;49.10;;;;;;5058186;28;20448;-92
2021/10/15 05:18:12;;;;;;;8.07;5.83;;;13.40;48.00;;;;;;5058955;28;20443;-91
2021/10/15 05:20:39;;;;;;;10.57;6.93;;;13.00;47.30;;;;;;5058764;28;20455;-91
2021/10/15 05:23:09;;;;;;;10.00;6.40;;;12.80;48.60;;;;;;5057404;28;20495;-91
2021/10/15 05:25:36;;;;;;;8.87;6.60;;;12.80;46.50;;;;;;5054859;28;20786;-92
2021/10/15 05:28:04;;;;;;;8.70;6.50;;;12.30;51.60;;;;;;5037527;28;20455;-93
2021/10/15 05:30:31;;;;;;;7.57;6.30;;;12.20;51.50;;;;;;5036142;28;20520;-91
2021/10/15 05:32:59;;;;;;;13.30;8.40;;;11.70;47.80;;;;;;5036165;28;20512;-92
2021/10/15 05:35:26;;;;;;;12.57;7.40;;;11.70;47.70;;;;;;5036313;28;20485;-91
2021/10/15 05:37:53;;;;;;;11.80;6.77;;;11.10;47.10;;;;;;5036110;28;20439;-91
2021/10/15 05:40:21;;;;;;;27.27;8.77;;;11.30;53.30;;;;;;5037095;28;20542;-92
2021/10/15 05:42:50;;;;;;;11.13;7.80;;;11.60;47.00;;;;;;5039824;28;20509;-90
2021/10/15 05:45:17;;;;;;;9.60;6.73;;;11.30;50.80;;;;;;5046599;28;20877;-92
2021/10/15 05:47:44;;;;;;;8.67;6.13;;;11.40;49.40;;;;;;5057919;28;20462;-90
2021/10/15 05:50:12;;;;;;;14.50;6.87;;;11.60;48.70;;;;;;5044779;28;20504;-92
2021/10/15 05:52:41;;;;;;;9.33;6.13;;;11.60;50.30;;;;;;5040852;28;20773;-91
2021/10/15 05:55:20;;;;;;;10.90;6.27;;;12.00;53.80;;;;;;5040648;28;20446;-92
2021/10/15 06:00:48;;;;;;;11.83;6.10;;;12.30;49.60;;;;;;5048175;28;20410;-92
2021/10/15 06:03:17;;;;;;;7.90;5.93;;;12.10;49.60;;;;;;5045500;28;20495;-92
2021/10/15 06:14:20;;;;;;;13.03;5.60;;;11.90;45.20;;;;;;5137542;28;20581;-91
2021/10/15 06:16:49;;;;;;;13.37;5.57;;;12.40;51.80;;;;;;5139596;27;20437;-91
2021/10/15 06:19:19;;;;;;;10.10;7.00;;;12.70;48.70;;;;;;5137486;27;20469;-91
2021/10/15 06:21:46;;;;;;;9.03;6.30;;;12.50;46.50;;;;;;5138516;27;20512;-91
2021/10/15 06:24:15;;;;;;;9.13;5.40;;;12.70;51.50;;;;;;5145852;27;20476;-91
2021/10/15 06:26:42;;;;;;;11.07;6.47;;;13.40;51.70;;;;;;5144830;27;20536;-91
2021/10/15 06:29:09;;;;;;;18.90;11.63;;;13.60;48.00;;;;;;5132641;27;20497;-91
2021/10/15 06:31:36;;;;;;;12.80;6.87;;;13.40;48.00;;;;;;5132249;27;20447;-92
2021/10/15 06:34:04;;;;;;;10.10;6.23;;;12.90;49.00;;;;;;5132095;27;20464;-92
2021/10/15 06:36:31;;;;;;;9.07;6.20;;;12.60;50.40;;;;;;5132777;27;20530;-92
2021/10/15 06:38:58;;;;;;;9.40;5.57;;;12.60;46.60;;;;;;5132410;27;20502;-91
2021/10/15 06:41:26;;;;;;;8.13;5.97;;;12.70;49.80;;;;;;5132183;27;20949;-91
2021/10/15 06:43:53;;;;;;;9.20;5.53;;;12.30;47.30;;;;;;5132071;27;20450;-90
2021/10/15 06:46:21;;;;;;;9.97;6.90;;;12.40;49.80;;;;;;5132264;27;20475;-91
2021/10/15 06:48:49;;;;;;;9.53;6.20;;;12.60;47.10;;;;;;5131959;27;20415;-91
2021/10/15 06:51:16;;;;;;;7.77;6.03;;;12.80;50.70;;;;;;5132643;27;20531;-92
2021/10/15 06:53:43;;;;;;;11.03;5.83;;;12.70;49.50;;;;;;5132827;27;21041;-91
2021/10/15 06:56:10;;;;;;;14.33;5.77;;;13.00;50.60;;;;;;5131704;27;20871;-91
2021/10/15 06:58:39;;;;;;;8.40;6.10;;;13.60;51.40;;;;;;5131867;27;20437;-91
2021/10/15 07:01:06;;;;;;;12.43;6.17;;;13.70;46.00;;;;;;5130951;27;20501;-91
2021/10/15 07:03:33;;;;;;;8.57;5.77;;;14.00;47.90;;;;;;5132569;27;20481;-91
2021/10/15 07:06:01;;;;;;;10.90;6.30;;;14.00;46.60;;;;;;5131373;27;20494;-90
2021/10/15 07:08:28;;;;;;;12.00;6.00;;;14.00;46.30;;;;;;5130752;27;20509;-92
2021/10/15 07:10:55;;;;;;;9.30;5.93;;;13.90;44.50;;;;;;5130748;27;20439;-91
2021/10/15 07:13:22;;;;;;;9.10;5.50;;;14.30;46.90;;;;;;5131393;27;20872;-91
2021/10/15 07:15:50;;;;;;;15.90;6.50;;;14.20;44.60;;;;;;5131105;27;20906;-92
2021/10/15 07:18:18;;;;;;;9.20;5.67;;;13.60;42.20;;;;;;5128014;27;20460;-91
2021/10/15 07:20:45;;;;;;;6.63;5.60;;;13.40;48.70;;;;;;5118272;27;20521;-92
2021/10/15 07:23:13;;;;;;;10.63;6.40;;;14.10;49.00;;;;;;5116947;28;20465;-91
2021/10/15 07:25:41;;;;;;;7.70;4.93;;;14.60;46.80;;;;;;5117177;28;20446;-92
2021/10/15 07:28:08;;;;;;;8.10;5.43;;;14.70;48.20;;;;;;5118067;28;20473;-92
2021/10/15 07:30:36;;;;;;;7.60;5.57;;;15.10;48.50;;;;;;5117478;27;20516;-92
2021/10/15 07:33:04;;;;;;;10.63;6.60;;;15.00;45.70;;;;;;5118025;28;20465;-92
2021/10/15 07:35:31;;;;;;;11.90;6.00;;;14.60;45.80;;;;;;5124272;28;20480;-92
2021/10/15 07:37:58;;;;;;;11.37;6.90;;;14.60;45.50;;;;;;5125382;27;20446;-92
2021/10/15 07:40:25;;;;;;;8.17;6.30;;;14.90;46.00;;;;;;5118482;28;20524;-92
2021/10/15 07:42:52;;;;;;;9.47;6.10;;;14.80;42.90;;;;;;5118728;28;20544;-92
2021/10/15 07:45:20;;;;;;;8.63;6.33;;;14.90;46.80;;;;;;5117046;28;20851;-91
2021/10/15 07:47:47;;;;;;;20.67;7.10;;;15.20;47.30;;;;;;5117253;28;20996;-91
2021/10/15 07:50:16;;;;;;;7.17;5.33;;;15.50;43.70;;;;;;5116435;28;20772;-91
2021/10/15 07:52:43;;;;;;;8.60;6.20;;;15.50;44.70;;;;;;5117780;27;20533;-90
2021/10/15 07:55:11;;;;;;;9.97;6.47;;;15.70;46.80;;;;;;5116646;28;20484;-92
2021/10/15 07:57:38;;;;;;;9.17;6.57;;;15.60;43.00;;;;;;5116415;28;20984;-92
2021/10/15 08:00:08;;;;;;;10.30;6.93;;;15.60;42.10;;;;;;5118154;28;20449;-92
2021/10/15 08:02:35;;;;;;;10.70;7.00;;;15.50;42.20;;;;;;5131198;28;20475;-92
2021/10/15 08:05:02;;;;;;;13.60;6.40;;;15.60;41.30;;;;;;5116825;27;20798;-91
2021/10/15 08:07:31;;;;;;;9.27;6.03;;;15.10;44.00;;;;;;5116693;28;20953;-92
2021/10/15 08:09:58;;;;;;;11.40;6.33;;;15.20;45.30;;;;;;5116881;27;20480;-92
2021/10/15 08:12:25;;;;;;;6.60;5.90;;;15.30;41.30;;;;;;5116513;28;20889;-92
2021/10/15 08:14:52;;;;;;;12.97;7.00;;;15.40;43.30;;;;;;5116024;28;20473;-92
2021/10/15 08:17:19;;;;;;;9.87;5.53;;;16.00;39.60;;;;;;5116209;28;20499;-91
2021/10/15 08:19:46;;;;;;;9.10;5.33;;;15.90;42.70;;;;;;5115154;28;20487;-92
2021/10/15 08:22:13;;;;;;;8.20;5.23;;;16.00;41.00;;;;;;5115500;28;20824;-91
2021/10/15 08:24:41;;;;;;;12.17;6.40;;;16.50;41.10;;;;;;5116391;28;20802;-91
2021/10/15 08:27:08;;;;;;;15.53;7.23;;;16.40;37.90;;;;;;5114451;28;20501;-91
2021/10/15 08:29:38;;;;;;;8.40;6.20;;;16.10;37.80;;;;;;5115514;28;20476;-92
2021/10/15 08:32:06;;;;;;;8.80;5.47;;;16.40;37.70;;;;;;5115004;28;20437;-92
2021/10/15 08:34:36;;;;;;;7.67;5.80;;;16.10;40.50;;;;;;5115653;28;20500;-92
2021/10/15 08:37:03;;;;;;;8.40;6.33;;;16.10;39.40;;;;;;5115490;28;20426;-92
2021/10/15 08:39:30;;;;;;;10.87;7.13;;;16.70;43.50;;;;;;5116335;28;20895;-91
2021/10/15 08:42:00;;;;;;;9.43;5.83;;;16.70;39.20;;;;;;5115622;28;20453;-91
2021/10/15 08:44:33;;;;;;;7.57;5.27;;;17.10;39.10;;;;;;5115852;28;20452;-91
2021/10/15 08:47:00;;;;;;;8.67;6.13;;;16.90;38.90;;;;;;5115317;28;20413;-91
2021/10/15 08:49:27;;;;;;;7.37;5.50;;;16.50;38.20;;;;;;5116052;27;20492;-91
2021/10/15 08:51:54;;;;;;;10.10;5.90;;;16.80;39.40;;;;;;5115610;28;20532;-91
2021/10/15 08:54:21;;;;;;;9.27;5.60;;;16.70;40.30;;;;;;5114894;27;20564;-91
2021/10/15 08:56:48;;;;;;;6.87;5.17;;;17.10;37.30;;;;;;5115250;27;20891;-92
2021/10/15 08:59:22;;;;;;;21.07;5.60;;;17.10;39.60;;;;;;5115417;27;20449;-91
2021/10/15 09:01:50;;;;;;;13.37;6.40;;;17.00;36.30;;;;;;5119068;27;20445;-92
2021/10/15 09:04:19;;;;;;;8.07;5.23;;;16.40;39.50;;;;;;5120990;28;20549;-92
2021/10/15 09:06:48;;;;;;;9.83;6.23;;;16.60;38.60;;;;;;5117006;27;20560;-92
2021/10/15 09:09:27;;;;;;;6.90;5.00;;;16.40;40.20;;;;;;5115525;28;20480;-91
2021/10/15 09:12:07;;;;;;;7.90;5.60;;;16.10;37.80;;;;;;5115783;28;20452;-90
2021/10/15 09:14:37;;;;;;;6.97;5.63;;;16.00;40.80;;;;;;5115320;27;20569;-91
2021/10/15 09:17:07;;;;;;;11.10;7.30;;;16.20;39.40;;;;;;5115835;27;20476;-90
2021/10/15 09:19:38;;;;;;;14.53;6.63;;;16.90;38.50;;;;;;5124188;28;20413;-88
2021/10/15 09:22:22;;;;;;;6.67;5.37;;;17.20;38.20;;;;;;5134529;27;20448;-90
2021/10/15 09:24:52;;;;;;;9.60;5.87;;;17.40;38.50;;;;;;5115083;28;20595;-91
2021/10/15 09:27:32;;;;;;;15.67;5.47;;;17.60;38.20;;;;;;5114060;28;20406;-91
2021/10/15 09:30:04;;;;;;;10.33;6.40;;;17.40;37.50;;;;;;5114941;27;20437;-92
2021/10/15 09:32:33;;;;;;;5.57;4.80;;;17.60;39.90;;;;;;5114813;28;20426;-91
2021/10/15 09:35:01;;;;;;;5.80;4.80;;;17.80;39.50;;;;;;5117623;28;20446;-91
2021/10/15 09:37:30;;;;;;;8.40;5.93;;;17.80;37.20;;;;;;5118536;28;20439;-91
2021/10/15 09:40:06;;;;;;;4.70;4.00;;;17.20;37.70;;;;;;5133721;27;20429;-90
2021/10/15 09:42:36;;;;;;;16.67;7.73;;;17.50;42.30;;;;;;5119221;27;20484;-91
2021/10/15 09:45:15;;;;;;;9.73;6.97;;;18.10;37.40;;;;;;5118405;28;20430;-91
2021/10/15 09:47:44;;;;;;;9.87;5.93;;;18.00;36.40;;;;;;5120857;28;20846;-92
2021/10/15 09:50:12;;;;;;;10.97;6.63;;;18.30;38.10;;;;;;5120488;27;20446;-91
2021/10/15 09:52:42;;;;;;;7.23;5.43;;;18.10;36.80;;;;;;5120088;28;20923;-91
2021/10/15 09:55:18;;;;;;;18.03;6.97;;;18.10;37.80;;;;;;5119507;28;20494;-91
2021/10/15 09:57:47;;;;;;;5.43;4.07;;;17.70;37.60;;;;;;5133447;27;20429;-89
2021/10/15 10:00:55;;;;;;;7.10;5.27;;;18.20;41.40;;;;;;5137427;28;20425;-88
2021/10/15 10:03:26;;;;;;;9.37;6.43;;;18.40;37.60;;;;;;5135667;27;20476;-91
2021/10/15 10:05:53;;;;;;;8.57;6.00;;;18.60;38.10;;;;;;5125328;28;20440;-91
2021/10/15 10:08:20;;;;;;;7.70;5.47;;;18.40;35.80;;;;;;5137495;28;20473;-91
2021/10/15 10:10:48;;;;;;;26.97;6.70;;;18.60;39.00;;;;;;5137534;28;20456;-88
2021/10/15 10:13:17;;;;;;;12.40;6.07;;;18.00;37.30;;;;;;5137529;28;20453;-88
2021/10/15 10:15:45;;;;;;;8.23;5.57;;;17.80;37.30;;;;;;5131514;28;20858;-94
2021/10/15 10:18:21;;;;;;;9.70;5.50;;;18.20;39.40;;;;;;5117288;27;20498;-93
2021/10/15 10:20:52;;;;;;;9.37;5.30;;;18.40;38.10;;;;;;5116840;27;20794;-93
2021/10/15 10:23:27;;;;;;;7.37;5.40;;;18.60;37.80;;;;;;5117218;27;20526;-93
2021/10/15 10:25:57;;;;;;;8.30;4.50;;;19.00;38.80;;;;;;5115076;28;20429;-93
2021/10/15 10:28:26;;;;;;;19.27;5.73;;;19.30;39.20;;;;;;5116888;28;20549;-93
2021/10/15 10:30:56;;;;;;;11.83;6.00;;;19.40;36.20;;;;;;5117590;28;20441;-93
2021/10/15 10:33:24;;;;;;;8.30;5.63;;;19.30;36.60;;;;;;5118348;28;20647;-93
2021/10/15 10:35:54;;;;;;;4.73;4.03;;;19.60;37.60;;;;;;5120775;28;20487;-93
2021/10/15 10:38:30;;;;;;;7.93;6.00;;;19.90;38.50;;;;;;5127384;28;20453;-93
2021/10/15 10:41:27;;;;;;;8.60;4.90;;;19.90;35.00;;;;;;5129899;27;20832;-93
2021/10/15 10:44:13;;;;;;;9.80;5.47;;;19.70;36.10;;;;;;5119543;27;20466;-94
2021/10/15 10:46:41;;;;;;;5.90;3.90;;;19.40;37.00;;;;;;5121997;28;20406;-93
2021/10/15 10:49:19;;;;;;;7.90;4.97;;;19.60;36.90;;;;;;5124737;28;20504;-93
2021/10/15 10:52:11;;;;;;;11.37;4.90;;;19.70;36.30;;;;;;5121307;28;20449;-92
2021/10/15 10:54:39;;;;;;;8.93;4.00;;;19.80;36.10;;;;;;5123834;28;20469;-93
2021/10/15 10:57:19;;;;;;;9.30;4.83;;;19.90;37.40;;;;;;5127347;28;20426;-93
2021/10/15 10:59:46;;;;;;;7.13;4.33;;;19.90;35.80;;;;;;5124182;27;20441;-94
2021/10/15 11:02:16;;;;;;;8.43;4.93;;;20.00;36.00;;;;;;5126749;27;20445;-94
2021/10/15 11:04:58;;;;;;;10.80;4.83;;;20.30;34.50;;;;;;5127577;27;20485;-93
2021/10/15 11:07:30;;;;;;;7.57;5.03;;;20.20;34.80;;;;;;5123240;27;20462;-94
2021/10/15 11:10:00;;;;;;;6.90;5.10;;;20.10;35.80;;;;;;5123849;27;20475;-93
2021/10/15 11:12:58;;;;;;;13.00;4.70;;;20.30;35.30;;;;;;5131918;28;20501;-92
2021/10/15 11:15:30;;;;;;;7.27;5.30;;;20.60;33.00;;;;;;5136010;27;20445;-92
2021/10/15 11:17:57;;;;;;;6.40;4.80;;;20.40;35.00;;;;;;5128216;27;20449;-94
2021/10/15 11:20:26;;;;;;;7.70;4.20;;;20.60;31.90;;;;;;5127317;28;20914;-94
2021/10/15 11:22:56;;;;;;;9.07;4.17;;;20.40;33.60;;;;;;5123044;28;20500;-92
2021/10/15 11:25:25;;;;;;;3.83;3.10;;;20.40;32.60;;;;;;5126626;28;20418;-94
2021/10/15 11:27:54;;;;;;;4.43;3.30;;;19.90;36.00;;;;;;5125731;27;20449;-93
2021/10/15 11:30:22;;;;;;;4.70;3.97;;;19.90;32.40;;;;;;5130154;28;20457;-95
2021/10/15 11:32:51;;;;;;;10.60;6.80;;;20.00;31.40;;;;;;5126456;28;20464;-93
2021/10/15 11:35:21;;;;;;;11.67;7.00;;;19.90;32.70;;;;;;5123484;28;20490;-93
2021/10/15 11:38:02;;;;;;;13.57;5.53;;;20.10;32.30;;;;;;5121855;28;20837;-93
2021/10/15 11:40:32;;;;;;;8.80;5.30;;;20.40;31.40;;;;;;5121658;28;20470;-93
2021/10/15 11:43:17;;;;;;;8.47;5.10;;;20.30;31.60;;;;;;5121551;27;20473;-91
2021/10/15 11:45:46;;;;;;;8.70;3.67;;;20.50;32.40;;;;;;5122107;28;20503;-94
2021/10/15 11:48:15;;;;;;;4.90;3.50;;;20.40;31.10;;;;;;5121046;28;20442;-93
2021/10/15 11:50:51;;;;;;;4.40;3.00;;;20.50;31.80;;;;;;5120709;28;20943;-94
2021/10/15 11:53:23;;;;;;;3.50;2.97;;;20.70;31.00;;;;;;5121509;27;20548;-94
2021/10/15 11:55:51;;;;;;;7.33;2.97;;;20.90;30.60;;;;;;5127404;28;20475;-93
2021/10/15 11:58:30;;;;;;;9.63;2.70;;;20.70;32.30;;;;;;5122591;27;20958;-91
2021/10/15 12:01:05;;;;;;;4.37;3.20;;;21.20;34.40;;;;;;5119759;28;20426;-93
2021/10/15 12:03:35;;;;;;;8.50;4.30;;;21.30;28.60;;;;;;5122192;28;20461;-93
2021/10/15 12:06:27;;;;;;;6.03;3.67;;;21.10;30.30;;;;;;5120708;28;20469;-93
2021/10/15 12:09:01;;;;;;;3.20;2.83;;;20.50;30.20;;;;;;5119863;27;20477;-93
2021/10/15 12:11:48;;;;;;;4.10;2.90;;;20.70;30.90;;;;;;5121813;28;20535;-92
2021/10/15 12:14:17;;;;;;;4.03;3.00;;;20.90;29.70;;;;;;5119730;27;20465;-93
2021/10/15 12:16:51;;;;;;;5.40;3.03;;;20.90;29.40;;;;;;5126823;27;20433;-93
2021/10/15 12:19:23;;;;;;;4.00;2.60;;;21.20;29.50;;;;;;5120085;28;20418;-93
2021/10/15 12:21:59;;;;;;;4.30;2.90;;;21.50;28.80;;;;;;5120881;27;20521;-93
2021/10/15 12:24:30;;;;;;;6.30;3.17;;;20.90;29.60;;;;;;5121198;28;20460;-93
2021/10/15 12:27:10;;;;;;;3.17;2.73;;;20.80;30.90;;;;;;5120136;28;20439;-93
2021/10/15 12:29:40;;;;;;;4.40;2.60;;;20.70;29.20;;;;;;5121634;28;20496;-92
2021/10/15 12:32:10;;;;;;;2.73;2.60;;;20.50;29.30;;;;;;5122109;28;20421;-92
2021/10/15 12:35:07;;;;;;;3.60;2.90;;;20.60;29.00;;;;;;5125009;27;20446;-93
2021/10/15 12:37:44;;;;;;;3.43;3.00;;;20.60;29.20;;;;;;5126173;28;20453;-94
2021/10/15 12:40:30;;;;;;;3.80;3.00;;;20.70;29.70;;;;;;5126277;28;20410;-94
2021/10/15 12:43:10;;;;;;;9.33;2.57;;;20.80;29.00;;;;;;5126984;28;20445;-93
2021/10/15 12:45:40;;;;;;;4.43;2.67;;;21.10;28.40;;;;;;5126642;27;20467;-94
2021/10/15 12:48:15;;;;;;;3.20;2.23;;;21.10;28.50;;;;;;5130442;28;20442;-93
2021/10/15 12:50:44;;;;;;;4.50;2.90;;;20.80;28.90;;;;;;5131972;27;20818;-90
2021/10/15 12:53:17;;;;;;;3.07;2.40;;;21.00;28.60;;;;;;5124342;28;20446;-93
2021/10/15 12:55:51;;;;;;;3.20;2.50;;;21.00;28.30;;;;;;5130373;28;20426;-89
2021/10/15 12:58:18;;;;;;;3.57;2.40;;;21.00;28.40;;;;;;5123949;28;20453;-92
2021/10/15 13:00:51;;;;;;;7.23;2.80;;;21.00;28.90;;;;;;5123892;28;20434;-92
2021/10/15 13:03:18;;;;;;;4.37;2.73;;;21.20;29.10;;;;;;5125839;28;20533;-91
2021/10/15 13:05:45;;;;;;;4.10;2.60;;;21.20;28.60;;;;;;5126066;28;20450;-92